createdAt,value
2023-05-06T00:01:02.705Z,34.25
2023-05-06T00:03:37.352Z,34.65
2023-05-06T00:06:12.374Z,34.88
2023-05-06T00:08:45.426Z,35.65
2023-05-06T00:11:17.717Z,36.38
2023-05-06T00:13:49.876Z,36.60
2023-05-06T00:16:25.776Z,36.00
2023-05-06T00:18:57.966Z,37.50
2023-05-06T00:21:30.585Z,35.75
2023-05-06T00:24:07.527Z,40.08
2023-05-06T00:26:42.442Z,38.00
2023-05-06T00:29:17.492Z,38.20
2023-05-06T00:31:49.737Z,37.88
2023-05-06T00:34:21.947Z,37.40
2023-05-06T00:36:54.345Z,35.53
2023-05-06T00:39:27.005Z,35.67
2023-05-06T00:42:02.711Z,37.00
2023-05-06T00:44:34.963Z,33.83
2023-05-06T00:47:11.104Z,35.35
2023-05-06T00:49:46.048Z,33.00
2023-05-06T00:52:20.287Z,30.60
2023-05-06T00:54:52.931Z,29.02
2023-05-06T00:57:25.386Z,27.25
2023-05-06T00:59:57.637Z,29.90
2023-05-06T01:02:43.314Z,29.65
2023-05-06T01:05:22.525Z,28.77
2023-05-06T01:08:27.458Z,28.90
2023-05-06T01:11:08.265Z,26.45
2023-05-06T01:13:59.227Z,26.58
2023-05-06T01:16:36.681Z,27.25
2023-05-06T01:19:25.908Z,27.15
2023-05-06T01:22:01.637Z,27.48
2023-05-06T01:24:44.730Z,28.13
2023-05-06T01:27:17.081Z,27.77
2023-05-06T01:29:50.123Z,29.30
2023-05-06T01:32:47.167Z,31.10
2023-05-06T01:35:50.799Z,28.27
2023-05-06T01:38:28.184Z,29.17
2023-05-06T01:41:02.181Z,31.50
2023-05-06T01:43:44.920Z,32.85
2023-05-06T01:46:22.282Z,33.17
2023-05-06T01:48:56.952Z,33.63
2023-05-06T01:51:35.354Z,39.10
2023-05-06T01:54:07.771Z,36.63
2023-05-06T01:56:40.131Z,35.40
2023-05-06T01:59:12.604Z,35.17
2023-05-06T02:01:45.271Z,32.38
2023-05-06T02:04:17.856Z,30.08
2023-05-06T02:06:52.921Z,30.30
2023-05-06T02:09:25.256Z,28.08
2023-05-06T02:11:57.626Z,32.75
2023-05-06T02:14:29.711Z,29.48
2023-05-06T02:17:05.985Z,28.75
2023-05-06T02:19:38.230Z,28.65
2023-05-06T02:22:12.219Z,28.17
2023-05-06T02:24:44.381Z,29.27
2023-05-06T02:27:16.740Z,26.80
2023-05-06T02:29:49.009Z,27.25
2023-05-06T02:32:21.446Z,30.35
2023-05-06T02:34:53.914Z,30.02
2023-05-06T02:37:26.196Z,25.23
2023-05-06T02:39:58.369Z,25.15
2023-05-06T02:42:30.941Z,23.30
2023-05-06T02:45:06.454Z,22.95
2023-05-06T02:47:38.650Z,22.52
2023-05-06T02:50:11.422Z,20.13
2023-05-06T02:52:47.539Z,20.20
2023-05-06T02:55:20.185Z,19.65
2023-05-06T02:57:52.305Z,18.92
2023-05-06T03:00:24.566Z,22.75
2023-05-06T03:02:56.882Z,20.65
2023-05-06T03:05:31.764Z,19.83
2023-05-06T03:08:04.044Z,19.20
2023-05-06T03:10:39.400Z,18.38
2023-05-06T03:13:15.072Z,19.17
2023-05-06T03:15:54.871Z,19.98
2023-05-06T03:18:27.058Z,19.33
2023-05-06T03:20:59.338Z,19.55
2023-05-06T03:23:31.613Z,19.58
2023-05-06T03:26:03.884Z,19.38
2023-05-06T03:28:36.082Z,18.13
2023-05-06T03:31:08.419Z,18.83
2023-05-06T03:33:41.313Z,18.85
2023-05-06T03:36:14.327Z,17.45
2023-05-06T03:38:46.840Z,18.67
2023-05-06T03:41:19.145Z,17.98
2023-05-06T03:43:55.853Z,17.50
2023-05-06T03:46:28.138Z,18.55
2023-05-06T03:49:03.004Z,17.50
2023-05-06T03:51:35.822Z,17.60
2023-05-06T03:54:08.560Z,16.90
2023-05-06T03:56:41.233Z,17.02
2023-05-06T03:59:13.428Z,18.05
2023-05-06T04:01:45.975Z,17.40
2023-05-06T04:04:18.372Z,16.27
2023-05-06T04:06:51.161Z,16.83
2023-05-06T04:09:24.195Z,18.02
2023-05-06T04:11:56.504Z,21.02
2023-05-06T04:14:28.610Z,20.02
2023-05-06T04:17:00.996Z,19.23
2023-05-06T04:19:35.895Z,18.20
2023-05-06T04:22:08.077Z,18.95
2023-05-06T04:24:42.031Z,18.73
2023-05-06T04:27:17.318Z,19.65
2023-05-06T04:29:49.486Z,19.73
2023-05-06T04:32:21.800Z,17.98
2023-05-06T04:34:54.388Z,21.20
2023-05-06T04:37:28.539Z,20.05
2023-05-06T04:40:02.884Z,19.75
2023-05-06T04:42:35.133Z,18.95
2023-05-06T04:45:08.334Z,18.70
2023-05-06T04:47:41.080Z,19.00
2023-05-06T04:50:13.779Z,20.73
2023-05-06T04:52:46.057Z,19.52
2023-05-06T04:55:18.237Z,19.42
2023-05-06T04:57:50.362Z,18.45
2023-05-06T05:00:22.866Z,20.20
2023-05-06T05:02:55.116Z,18.02
2023-05-06T05:05:32.352Z,17.20
2023-05-06T05:08:04.684Z,18.48
2023-05-06T05:10:36.844Z,18.75
2023-05-06T05:13:14.601Z,18.98
2023-05-06T05:15:46.848Z,17.98
2023-05-06T05:18:21.207Z,19.27
2023-05-06T05:20:56.409Z,17.83
2023-05-06T05:23:28.501Z,18.02
2023-05-06T05:26:02.126Z,18.27
2023-05-06T05:28:34.328Z,19.50
2023-05-06T05:31:08.341Z,17.33
2023-05-06T05:33:41.985Z,17.38
2023-05-06T05:36:17.385Z,17.75
2023-05-06T05:38:50.487Z,18.17
2023-05-06T05:41:22.683Z,17.08
2023-05-06T05:43:54.816Z,17.58
2023-05-06T05:46:27.660Z,17.95
2023-05-06T05:48:59.785Z,17.13
2023-05-06T05:51:32.047Z,17.55
2023-05-06T05:54:04.316Z,17.00
2023-05-06T05:56:36.488Z,16.48
2023-05-06T05:59:09.030Z,16.25
2023-05-06T06:01:41.237Z,15.70
2023-05-06T06:04:13.426Z,15.18
2023-05-06T06:06:47.021Z,15.00
2023-05-06T06:09:19.312Z,14.43
2023-05-06T06:11:51.894Z,16.08
2023-05-06T06:14:24.048Z,14.65
2023-05-06T06:16:56.406Z,15.98
2023-05-06T06:19:28.559Z,13.98
2023-05-06T06:22:00.984Z,16.02
2023-05-06T06:24:36.436Z,16.13
2023-05-06T06:27:08.664Z,14.48
2023-05-06T06:29:40.959Z,15.88
2023-05-06T06:32:13.243Z,14.07
2023-05-06T06:34:45.653Z,13.25
2023-05-06T06:37:17.931Z,12.02
2023-05-06T06:39:50.064Z,13.45
2023-05-06T06:42:22.170Z,14.38
2023-05-06T06:44:54.231Z,13.75
2023-05-06T06:47:26.526Z,14.52
2023-05-06T06:49:58.647Z,15.18
2023-05-06T06:52:30.851Z,13.75
2023-05-06T06:55:03.565Z,14.05
2023-05-06T06:57:38.024Z,14.05
2023-05-06T07:00:11.037Z,13.50
2023-05-06T07:02:43.193Z,13.40
2023-05-06T07:05:15.628Z,13.00
2023-05-06T07:07:47.763Z,13.73
2023-05-06T07:10:20.075Z,13.80
2023-05-06T07:12:52.229Z,12.93
2023-05-06T07:15:24.989Z,12.82
2023-05-06T07:17:57.150Z,12.77
2023-05-06T07:20:29.294Z,14.25
2023-05-06T07:23:01.502Z,14.52
2023-05-06T07:25:33.666Z,14.02
2023-05-06T07:28:06.158Z,13.10
2023-05-06T07:30:39.416Z,15.90
2023-05-06T07:33:12.725Z,26.58
2023-05-06T07:35:50.140Z,33.33
2023-05-06T07:38:38.697Z,42.88
2023-05-06T07:41:27.129Z,35.90
2023-05-06T07:43:59.221Z,33.20
2023-05-06T07:46:32.329Z,33.42
2023-05-06T07:49:05.483Z,34.58
2023-05-06T07:51:39.877Z,34.65
2023-05-06T07:54:14.090Z,35.30
2023-05-06T07:57:05.258Z,34.03
2023-05-06T07:59:37.820Z,33.85
2023-05-06T08:02:10.823Z,33.67
2023-05-06T08:04:43.441Z,28.38
2023-05-06T08:07:16.916Z,23.77
2023-05-06T08:09:49.414Z,18.35
2023-05-06T08:12:21.617Z,19.38
2023-05-06T08:14:55.092Z,14.55
2023-05-06T08:17:27.419Z,18.95
2023-05-06T08:19:59.666Z,15.25
2023-05-06T08:22:34.545Z,16.08
2023-05-06T08:25:07.633Z,16.00
2023-05-06T08:27:40.721Z,15.55
2023-05-06T08:30:13.961Z,16.88
2023-05-06T08:32:49.202Z,18.52
2023-05-06T08:35:21.667Z,18.88
2023-05-06T08:37:53.780Z,19.85
2023-05-06T08:40:28.165Z,19.35
2023-05-06T08:43:01.736Z,21.77
2023-05-06T08:45:34.275Z,23.95
2023-05-06T08:48:06.998Z,29.67
2023-05-06T08:50:44.307Z,21.60
2023-05-06T08:53:17.250Z,20.00
2023-05-06T08:55:51.984Z,19.05
2023-05-06T08:58:26.571Z,18.77
2023-05-06T09:01:00.524Z,18.85
2023-05-06T09:03:32.782Z,20.80
2023-05-06T09:06:05.894Z,21.40
2023-05-06T09:08:38.555Z,21.83
2023-05-06T09:15:11.590Z,19.75
2023-05-06T09:17:44.879Z,17.83
2023-05-06T09:20:23.929Z,20.20
2023-05-06T09:22:56.145Z,18.60
2023-05-06T09:25:29.847Z,17.58
2023-05-06T09:28:08.928Z,19.58
2023-05-06T09:30:43.657Z,17.73
2023-05-06T09:33:16.495Z,18.65
2023-05-06T09:35:50.206Z,18.10
2023-05-06T09:38:22.621Z,21.00
2023-05-06T09:40:54.992Z,21.50
2023-05-06T09:43:27.229Z,18.95
2023-05-06T09:46:02.968Z,17.70
2023-05-06T09:48:36.780Z,18.23
2023-05-06T09:51:12.269Z,18.13
2023-05-06T09:53:45.721Z,22.52
2023-05-06T09:56:18.108Z,19.65
2023-05-06T09:58:52.873Z,17.08
2023-05-06T10:01:35.992Z,17.60
2023-05-06T10:04:10.530Z,14.20
2023-05-06T10:06:44.728Z,13.80
2023-05-06T10:09:17.857Z,12.82
2023-05-06T10:11:52.479Z,14.23
2023-05-06T10:14:25.652Z,12.38
2023-05-06T10:16:58.540Z,12.02
2023-05-06T10:19:32.811Z,11.55
2023-05-06T10:22:30.504Z,11.88
2023-05-06T10:25:38.394Z,9.95
2023-05-06T10:28:14.695Z,11.15
2023-05-06T10:30:59.810Z,9.07
2023-05-06T10:33:32.517Z,9.88
2023-05-06T10:36:25.595Z,9.57
2023-05-06T10:39:03.744Z,9.02
2023-05-06T10:41:38.760Z,8.77
2023-05-06T10:44:14.359Z,7.45
2023-05-06T10:47:13.064Z,6.68
2023-05-06T10:50:24.714Z,7.53
2023-05-06T10:52:59.533Z,6.93
2023-05-06T10:55:34.828Z,7.35
2023-05-06T10:58:20.287Z,8.13
2023-05-06T11:00:59.773Z,7.28
2023-05-06T11:11:00.802Z,5.13
2023-05-06T11:13:36.176Z,5.50
2023-05-06T11:20:27.827Z,7.22
2023-05-06T11:23:42.997Z,6.85
2023-05-06T11:26:32.196Z,8.68
2023-05-06T11:38:02.253Z,7.72
2023-05-06T11:40:51.224Z,5.25
2023-05-06T11:43:24.116Z,8.07
2023-05-06T11:46:05.165Z,8.40
2023-05-06T11:48:44.149Z,6.38
2023-05-06T11:51:27.042Z,7.43
2023-05-06T11:57:53.782Z,9.60
2023-05-06T12:00:27.056Z,9.07
2023-05-06T12:03:06.805Z,9.93
2023-05-06T12:05:42.557Z,10.30
2023-05-06T12:08:26.896Z,9.48
2023-05-06T12:11:09.701Z,8.65
2023-05-06T12:13:46.637Z,8.63
2023-05-06T12:16:33.059Z,8.57
2023-05-06T12:19:34.478Z,7.03
2023-05-06T12:40:06.016Z,5.65
2023-05-06T12:50:46.134Z,7.28
2023-05-06T13:08:39.773Z,9.30
2023-05-06T13:12:47.353Z,8.75
2023-05-06T13:18:27.380Z,9.65
2023-05-06T13:21:46.545Z,9.13
2023-05-06T13:24:48.062Z,6.97
2023-05-06T13:27:47.748Z,6.70
2023-05-06T13:36:29.852Z,4.85
2023-05-06T13:39:22.255Z,4.32
2023-05-06T13:42:19.990Z,4.57
2023-05-06T13:45:17.066Z,3.85
2023-05-06T13:51:48.647Z,4.50
2023-05-06T13:58:25.556Z,5.50
2023-05-06T14:01:21.437Z,3.35
2023-05-06T14:07:09.928Z,5.47
2023-05-06T14:10:19.556Z,5.68
2023-05-06T14:13:19.194Z,5.00
2023-05-06T14:16:07.343Z,5.45
2023-05-06T14:18:52.029Z,5.82
2023-05-06T14:24:47.803Z,5.50
2023-05-06T14:28:40.351Z,5.15
2023-05-06T14:31:12.548Z,5.13
2023-05-06T14:33:44.967Z,6.07
2023-05-06T14:36:20.757Z,5.25
2023-05-06T14:38:52.898Z,4.82
2023-05-06T14:41:25.267Z,6.15
2023-05-06T14:44:00.457Z,5.90
2023-05-06T14:46:32.688Z,5.63
2023-05-06T14:49:04.887Z,5.60
2023-05-06T14:51:37.157Z,5.80
2023-05-06T14:54:09.315Z,5.00
2023-05-06T14:56:41.943Z,6.18
2023-05-06T14:59:14.278Z,6.65
2023-05-06T15:01:46.548Z,5.22
2023-05-06T15:04:18.785Z,4.93
2023-05-06T15:06:51.018Z,5.07
2023-05-06T15:09:23.276Z,5.20
2023-05-06T15:11:55.490Z,5.60
2023-05-06T15:14:27.647Z,7.38
2023-05-06T15:16:59.845Z,5.25
2023-05-06T15:19:33.727Z,5.47
2023-05-06T15:22:05.981Z,6.03
2023-05-06T15:24:38.137Z,6.05
2023-05-06T15:27:10.433Z,6.72
2023-05-06T15:29:42.578Z,6.35
2023-05-06T15:32:15.157Z,5.85
2023-05-06T15:34:47.336Z,5.75
2023-05-06T15:37:19.653Z,5.43
2023-05-06T15:39:51.925Z,7.13
2023-05-06T15:42:24.056Z,6.95
2023-05-06T15:44:56.184Z,6.68
2023-05-06T15:47:28.275Z,6.25
2023-05-06T15:50:01.551Z,6.32
2023-05-06T15:52:33.897Z,8.32
2023-05-06T15:55:06.669Z,7.80
2023-05-06T15:57:39.079Z,6.88
2023-05-06T16:00:12.511Z,6.63
2023-05-06T16:02:45.242Z,6.53
2023-05-06T16:05:17.433Z,6.60
2023-05-06T16:07:49.858Z,7.85
2023-05-06T16:10:22.190Z,8.65
2023-05-06T16:12:54.550Z,8.45
2023-05-06T16:15:26.794Z,7.95
2023-05-06T16:17:58.926Z,9.18
2023-05-06T16:20:32.777Z,9.35
2023-05-06T16:23:05.548Z,9.38
2023-05-06T16:25:38.547Z,10.40
2023-05-06T16:28:10.889Z,9.60
2023-05-06T16:30:45.048Z,9.43
2023-05-06T16:33:17.153Z,10.00
2023-05-06T16:35:49.248Z,9.75
2023-05-06T16:38:21.458Z,10.05
2023-05-06T16:40:53.702Z,10.60
2023-05-06T16:43:25.894Z,10.68
2023-05-06T16:45:58.072Z,10.57
2023-05-06T16:48:30.248Z,9.82
2023-05-06T16:51:02.692Z,10.50
2023-05-06T16:53:34.780Z,10.95
2023-05-06T16:56:07.629Z,10.93
2023-05-06T16:58:39.974Z,11.23
2023-05-06T17:01:12.285Z,12.13
2023-05-06T17:03:44.490Z,11.30
2023-05-06T17:06:16.594Z,11.02
2023-05-06T17:08:48.830Z,11.35
2023-05-06T17:11:21.013Z,11.27
2023-05-06T17:13:55.051Z,11.15
2023-05-06T17:16:28.839Z,12.02
2023-05-06T17:19:01.641Z,10.70
2023-05-06T17:21:35.629Z,12.10
2023-05-06T17:24:13.089Z,11.82
2023-05-06T17:26:45.444Z,12.05
2023-05-06T17:29:17.845Z,12.68
2023-05-06T17:31:50.394Z,10.07
2023-05-06T17:34:22.827Z,11.85
2023-05-06T17:36:55.114Z,10.65
2023-05-06T17:39:27.559Z,11.77
2023-05-06T17:42:02.061Z,12.07
2023-05-06T17:44:35.560Z,11.73
2023-05-06T17:47:08.026Z,12.40
2023-05-06T17:49:40.264Z,14.23
2023-05-06T17:52:12.599Z,10.90
2023-05-06T17:54:45.384Z,13.15
2023-05-06T17:57:18.288Z,12.13
2023-05-06T17:59:50.505Z,12.80
2023-05-06T18:02:22.899Z,11.95
2023-05-06T18:04:55.088Z,12.82
2023-05-06T18:07:27.296Z,11.32
2023-05-06T18:09:59.440Z,13.00
2023-05-06T18:12:32.172Z,11.75
2023-05-06T18:15:06.106Z,13.32
2023-05-06T18:17:38.476Z,14.02
2023-05-06T18:20:11.692Z,12.35
2023-05-06T18:22:44.104Z,13.10
2023-05-06T18:25:16.596Z,12.77
2023-05-06T18:27:49.669Z,11.93
2023-05-06T18:30:22.102Z,11.95
2023-05-06T18:32:56.501Z,14.30
2023-05-06T18:35:30.360Z,12.15
2023-05-06T18:38:03.168Z,13.15
2023-05-06T18:40:36.772Z,13.43
2023-05-06T18:43:08.967Z,13.48
2023-05-06T18:45:42.792Z,13.95
2023-05-06T18:48:17.903Z,13.52
2023-05-06T18:50:51.179Z,13.35
2023-05-06T18:53:23.385Z,14.70
2023-05-06T18:55:55.475Z,14.30
2023-05-06T18:58:27.763Z,13.70
2023-05-06T19:01:00.429Z,13.93
2023-05-06T19:03:35.163Z,13.88
2023-05-06T19:06:10.798Z,14.15
2023-05-06T19:08:43.159Z,13.10
2023-05-06T19:11:18.299Z,13.35
2023-05-06T19:13:52.337Z,13.32
2023-05-06T19:16:24.512Z,11.50
2023-05-06T19:18:56.693Z,11.85
2023-05-06T19:21:29.124Z,12.48
2023-05-06T19:24:01.846Z,12.88
2023-05-06T19:26:33.979Z,12.85
2023-05-06T19:29:06.396Z,13.32
2023-05-06T19:31:38.774Z,13.50
2023-05-06T19:34:10.952Z,13.45
2023-05-06T19:36:43.712Z,14.10
2023-05-06T19:39:16.589Z,13.63
2023-05-06T19:41:48.835Z,12.60
2023-05-06T19:44:21.058Z,13.88
2023-05-06T19:46:56.633Z,14.02
2023-05-06T19:49:30.726Z,12.30
2023-05-06T19:52:02.814Z,13.63
2023-05-06T19:54:34.942Z,13.90
2023-05-06T19:57:07.205Z,14.07
2023-05-06T19:59:39.317Z,12.73
2023-05-06T20:02:13.606Z,14.10
2023-05-06T20:04:46.336Z,14.05
2023-05-06T20:07:20.553Z,13.50
2023-05-06T20:09:55.719Z,13.05
2023-05-06T20:12:27.931Z,12.63
2023-05-06T20:15:00.133Z,12.20
2023-05-06T20:17:32.291Z,13.15
2023-05-06T20:20:09.908Z,12.30
2023-05-06T20:22:42.146Z,12.70
2023-05-06T20:25:17.682Z,11.60
2023-05-06T20:27:49.868Z,11.55
2023-05-06T20:30:22.234Z,13.15
2023-05-06T20:32:54.765Z,12.82
2023-05-06T20:35:27.537Z,14.02
2023-05-06T20:37:59.928Z,12.73
2023-05-06T20:40:33.108Z,12.48
2023-05-06T20:43:05.232Z,13.35
2023-05-06T20:45:40.738Z,14.07
2023-05-06T20:48:14.883Z,13.45
2023-05-06T20:50:47.556Z,12.52
2023-05-06T20:53:20.360Z,13.00
2023-05-06T20:55:52.582Z,13.18
2023-05-06T20:58:24.755Z,14.35
2023-05-06T21:00:57.849Z,12.38
2023-05-06T21:03:30.672Z,14.60
2023-05-06T21:06:03.284Z,14.13
2023-05-06T21:08:35.514Z,14.77
2023-05-06T21:11:07.626Z,13.60
2023-05-06T21:13:40.995Z,14.70
2023-05-06T21:16:13.145Z,15.05
2023-05-06T21:18:45.298Z,14.55
2023-05-06T21:21:17.494Z,16.17
2023-05-06T21:23:49.557Z,16.02
2023-05-06T21:26:21.920Z,14.43
2023-05-06T21:28:53.967Z,14.40
2023-05-06T21:31:27.016Z,15.82
2023-05-06T21:33:59.569Z,15.10
2023-05-06T21:36:31.705Z,14.55
2023-05-06T21:39:10.966Z,15.80
2023-05-06T21:41:43.862Z,15.90
2023-05-06T21:44:16.344Z,15.02
2023-05-06T21:46:48.627Z,15.20
2023-05-06T21:49:22.400Z,15.90
2023-05-06T21:51:54.575Z,15.80
2023-05-06T21:54:26.647Z,15.27
2023-05-06T21:56:58.780Z,16.25
2023-05-06T21:59:30.875Z,16.63
2023-05-06T22:02:04.303Z,16.58
2023-05-06T22:04:36.634Z,16.02
2023-05-06T22:07:08.973Z,16.00
2023-05-06T22:09:41.051Z,16.00
2023-05-06T22:12:13.506Z,16.58
2023-05-06T22:14:46.185Z,16.30
2023-05-06T22:17:18.561Z,17.73
2023-05-06T22:19:51.867Z,17.92
2023-05-06T22:22:24.976Z,17.63
2023-05-06T22:24:57.031Z,17.50
2023-05-06T22:27:29.440Z,18.20
2023-05-06T22:30:01.898Z,18.17
2023-05-06T22:32:34.002Z,17.85
2023-05-06T22:35:07.111Z,18.00
2023-05-06T22:37:40.402Z,17.20
2023-05-06T22:40:13.178Z,19.42
2023-05-06T22:42:45.733Z,19.15
2023-05-06T22:45:17.918Z,17.00
2023-05-06T22:47:50.177Z,18.15
2023-05-06T22:50:22.583Z,17.42
2023-05-06T22:52:54.847Z,18.05
2023-05-06T22:55:27.045Z,18.77
2023-05-06T22:57:59.286Z,17.48
2023-05-06T23:00:31.442Z,18.90
2023-05-06T23:03:03.865Z,16.75
2023-05-06T23:05:36.079Z,17.17
2023-05-06T23:08:08.550Z,17.58
2023-05-06T23:10:40.942Z,16.55
2023-05-06T23:13:13.370Z,16.88
2023-05-06T23:15:45.585Z,18.52
2023-05-06T23:18:18.030Z,17.02
2023-05-06T23:20:50.127Z,17.48
2023-05-06T23:23:22.284Z,18.00
2023-05-06T23:25:54.410Z,16.90
2023-05-06T23:28:26.610Z,17.40
2023-05-06T23:30:58.812Z,16.33
2023-05-06T23:33:31.061Z,17.40
2023-05-06T23:36:03.526Z,16.75
2023-05-06T23:38:35.914Z,17.45
2023-05-06T23:41:08.042Z,16.45
2023-05-06T23:43:41.162Z,17.23
2023-05-06T23:46:13.379Z,17.52
2023-05-06T23:49:17.695Z,16.60
2023-05-06T23:51:49.773Z,17.85
2023-05-06T23:54:21.898Z,17.67
2023-05-06T23:56:54.126Z,17.90
2023-05-06T23:59:26.219Z,16.60
